Latest Coastal Weather Observations for Weipa

IDQ60701

Issued at 4:31 pm EST Wednesday 5 August 2015 (issued every 10 minutes, with the page automatically refreshed every 10 minutes)

About coastal observations | Map of coastal stations | Coastal observations for QLD | Marine services | Other Formats
Station Details ID: 027045 Name: WEIPA AERO Lat: -12.68 Lon: 141.92 Height: 17.96 m
Data from the previous 72 hours. | See also: Recent months at Weipa
Date/Time
EST
Temp

°C
Wind Pressure Rain
since 9am
mm
Weather Cloud Vis
km
Sea
Height
m
Swell
Dir
 
Speed
knots
Gust
knots
hPa Trend Height
m
Period
s
Dir
05/04:30pm 30.9 E 9 13 1010.7 - 0.0 - - 10 - - - -
05/04:00pm 30.4 E 8 11 1010.6 - 0.0 - Partly cloudy 10 - - - -
05/03:30pm 30.6 SE 8 14 1010.3 - 0.0 - Partly cloudy 10 - - - -
05/03:00pm 30.8 E 9 15 1010.4 - 0.0 - Mostly cloudy 10 - - - -
05/02:30pm 31.3 E 8 16 1010.8 - 0.0 - Partly cloudy 10 - - - -
05/02:00pm 31.2 SE 9 15 1011.3 - 0.0 - Partly cloudy 10 - - - -
05/01:30pm 30.0 ESE 11 16 1011.8 - 0.0 - Partly cloudy 10 - - - -
05/01:00pm 29.7 ESE 8 13 1012.3 - 0.0 - Partly cloudy 10 - - - -
05/12:30pm 29.4 E 9 15 1012.9 - 0.0 - Partly cloudy 10 - - - -
05/12:00pm 28.8 ESE 11 18 1013.3 - 0.0 - Cloudy 10 - - - -
05/11:30am 28.0 ESE 7 13 1014.1 - 0.0 - Partly cloudy 10 - - - -
05/11:00am 26.6 ESE 9 16 1014.5 - 0.0 - Partly cloudy 10 - - - -
05/10:30am 26.6 SE 7 13 1014.9 - 0.0 - Partly cloudy 10 - - - -
05/10:00am 25.6 ESE 7 10 1015.0 - 0.0 - - 10 - - - -
05/09:30am 24.2 ESE 7 8 1015.0 - 0.0 - - 10 - - - -
05/09:00am 23.2 ESE 4 5 1014.7 F 0.0 Haze Partly cloudy 30 - - - -
05/08:30am 21.0 SSE 3 5 1014.5 - 0.0 - - 10 - - - -
05/08:20am 20.0 SE 4 5 1014.5 - 0.0 - Partly cloudy 9 - - - -
05/08:00am 18.6 SE 2 4 1014.3 - 0.0 - - 5 - - - -
05/07:30am 17.7 ESE 2 3 1014.0 - 0.0 - - 6 - - - -
05/07:25am 17.5 ESE 2 3 1014.0 - 0.0 - - 6 - - - -
05/07:00am 16.5 ESE 2 3 1013.7 - 0.0 - - 8 - - - -
05/06:30am 16.5 CALM 0 1 1013.5 - 0.0 - - 10 - - - -
05/06:00am 17.5 E 3 4 1013.3 - 0.0 - - 10 - - - -
05/05:30am 17.2 E 3 4 1013.2 - 0.0 - - 10 - - - -
05/05:00am 17.2 SE 3 3 1013.0 - 0.0 - - 10 - - - -
05/04:30am 17.4 ESE 2 3 1012.9 - 0.0 - - 10 - - - -
05/04:00am 17.3 ESE 2 3 1013.0 - 0.0 - - 10 - - - -
05/03:30am 16.9 CALM 0 1 1013.0 - 0.0 - - 10 - - - -
05/03:00am 17.5 CALM 0 1 1013.1 - 0.0 - - 10 - - - -
05/02:30am 17.5 CALM 0 2 1013.5 - 0.0 - - 10 - - - -
05/02:00am 17.7 CALM 0 0 1013.8 - 0.0 - - 10 - - - -
05/01:30am 18.0 SSE 1 1 1014.1 - 0.0 - - 10 - - - -
05/01:00am 18.2 CALM 0 1 1014.4 - 0.0 - - 10 - - - -
05/12:30am 18.7 CALM 0 2 1014.4 - 0.0 - - 10 - - - -
05/12:00am 19.4 CALM 0 0 1014.5 - 0.0 - - 10 - - - -
 
Date/Time
EST
Temp

°C
Wind Pressure Rain
since 9am
mm
Weather Cloud Vis
km
Sea
Height
m
Swell
Dir
 
Speed
knots
Gust
knots
hPa Trend Height
m
Period
s
Dir
04/11:30pm 19.8 CALM 0 1 1014.7 - 0.0 - - 10 - - - -
04/11:00pm 20.2 ESE 1 2 1014.8 - 0.0 - - 10 - - - -
04/10:30pm 20.5 E 1 3 1014.7 - 0.0 - - 10 - - - -
04/10:00pm 21.5 E 1 2 1014.6 - 0.0 - - 10 - - - -
04/09:30pm 21.9 SSE 2 6 1014.3 - 0.0 - - 10 - - - -
04/09:00pm 22.5 S 1 3 1013.9 - 0.0 - - 10 - - - -
04/08:30pm 23.0 S 2 4 1013.8 - 0.0 - - 9 - - - -
04/08:00pm 23.6 SSE 2 7 1013.3 - 0.0 - - 8 - - - -
04/07:30pm 23.9 SSW 2 4 1012.7 - 0.0 - - 10 - - - -
04/07:00pm 24.4 SW 4 7 1012.2 - 0.0 - - 10 - - - -
04/06:30pm 24.5 WSW 4 8 1011.9 - 0.0 - - 10 - - - -
04/06:00pm 25.3 WSW 5 10 1011.6 - 0.0 - - 10 - - - -
04/05:30pm 26.1 W 6 11 1011.6 - 0.0 - Partly cloudy 10 - - - -
04/05:00pm 27.0 WSW 7 14 1011.5 - 0.0 - Partly cloudy 10 - - - -
04/04:30pm 27.2 W 8 13 1011.5 - 0.0 - Partly cloudy 10 - - - -
04/04:00pm 27.8 W 8 13 1011.4 - 0.0 - Partly cloudy 10 - - - -
04/03:30pm 28.1 W 8 13 1011.4 - 0.0 - Partly cloudy 10 - - - -
04/03:00pm 28.4 WSW 8 13 1011.5 - 0.0 - Mostly clear 10 - - - -
04/02:30pm 28.9 W 9 14 1011.9 - 0.0 - Partly cloudy 10 - - - -
04/02:00pm 30.7 S 8 13 1012.4 - 0.0 - - 10 - - - -
04/01:30pm 30.6 SSE 8 14 1012.9 - 0.0 - - 10 - - - -
04/01:00pm 29.7 SSE 7 10 1013.4 - 0.0 - Partly cloudy 10 - - - -
04/12:30pm 30.3 SSE 5 10 1014.0 - 0.0 - Partly cloudy 10 - - - -
04/12:00pm 28.8 SSE 5 13 1014.5 - 0.0 - - 10 - - - -
04/11:30am 28.8 ESE 6 10 1015.1 - 0.0 - - 10 - - - -
04/11:00am 26.9 ESE 6 10 1015.8 - 0.0 - - 10 - - - -
04/10:30am 26.1 E 8 13 1016.3 - 0.0 - - 10 - - - -
04/10:00am 25.5 ESE 8 12 1016.4 - 0.0 - - 10 - - - -
04/09:30am 24.2 ESE 7 11 1016.4 - 0.0 - - 10 - - - -
04/09:00am 23.2 ESE 4 7 1016.1 F 0.0 Haze Clear 30 - - - -
04/08:30am 21.4 SSE 3 5 1016.0 - 0.0 - - 10 - - - -
04/08:00am 19.8 SE 1 2 1015.7 - 0.0 - - 7 - - - -
04/07:39am 18.1 SE 1 2 1015.6 - 0.0 - - 7 - - - -
04/07:30am 17.4 ESE 1 2 1015.6 - 0.0 - - 7 - - - -
04/07:17am 17.1 ESE 2 3 1015.5 - 0.0 - - 6 - - - -
04/07:00am 16.4 ESE 2 2 1015.3 - 0.0 - - 8 - - - -
04/06:56am 16.1 ESE 2 2 1015.3 - 0.0 - - 7 - - - -
04/06:39am 16.2 E 1 2 1015.2 - 0.0 - - 6 - - - -
04/06:30am 16.2 ESE 1 2 1015.2 - 0.0 - - 8 - - - -
04/06:00am 16.3 SSE 2 2 1014.8 - 0.0 - - 8 - - - -
04/05:30am 16.5 CALM 0 0 1014.7 - 0.0 - - 8 - - - -
04/05:00am 16.8 CALM 0 0 1014.5 - 0.0 - - 8 - - - -
04/04:51am 16.9 E 1 1 1014.5 - 0.0 - - 7 - - - -
04/04:37am 17.3 CALM 0 0 1014.5 - 0.0 - - 6 - - - -
04/04:30am 17.4 CALM 0 1 1014.5 - 0.0 - - 7 - - - -
04/04:29am 17.4 CALM 0 1 1014.5 - 0.0 - - 7 - - - -
04/04:00am 17.9 ESE 1 2 1014.8 - 0.0 - - 6 - - - -
04/03:30am 18.0 ESE 1 2 1014.9 - 0.0 - - 6 - - - -
04/03:22am 18.1 SE 1 2 1014.9 - 0.0 - - 6 - - - -
04/03:00am 18.1 ESE 2 3 1014.8 - 0.0 - - 7 - - - -
04/02:30am 18.3 ESE 3 4 1015.0 - 0.0 - - 7 - - - -
04/02:00am 18.7 E 1 1 1015.1 - 0.0 - - 10 - - - -
04/01:30am 18.7 E 1 2 1015.4 - 0.0 - - 10 - - - -
04/01:00am 19.3 SE 1 3 1015.6 - 0.0 - - 9 - - - -
04/12:30am 19.9 SSE 1 2 1015.6 - 0.0 - - 10 - - - -
04/12:00am 20.9 ESE 4 5 1015.7 - 0.0 - - 10 - - - -
 
Date/Time
EST
Temp

°C
Wind Pressure Rain
since 9am
mm
Weather Cloud Vis
km
Sea
Height
m
Swell
Dir
 
Speed
knots
Gust
knots
hPa Trend Height
m
Period
s
Dir
03/11:30pm 22.1 E 3 6 1015.7 - 0.0 - - 10 - - - -
03/11:00pm 21.8 ENE 4 6 1015.9 - 0.0 - - 10 - - - -
03/10:30pm 22.1 ENE 3 5 1015.8 - 0.0 - - 10 - - - -
03/10:00pm 21.4 NW 2 4 1015.7 - 0.0 - - 10 - - - -
03/09:30pm 23.1 E 5 7 1015.6 - 0.0 - - 10 - - - -
03/09:00pm 21.4 W 1 2 1015.2 - 0.0 - - 10 - - - -
03/08:30pm 22.2 NW 1 2 1015.0 - 0.0 - - 10 - - - -
03/08:00pm 22.6 ENE 1 4 1014.7 - 0.0 - - 10 - - - -
03/07:30pm 23.4 WNW 1 2 1014.1 - 0.0 - - 10 - - - -
03/07:00pm 24.0 WNW 2 3 1013.5 - 0.0 - - 10 - - - -
03/06:30pm 25.1 WNW 3 5 1013.2 - 0.0 - Partly cloudy 10 - - - -
03/06:00pm 26.2 W 5 8 1012.9 - 0.0 - - 10 - - - -
03/05:30pm 27.8 W 4 9 1012.8 - 0.0 - Partly cloudy 10 - - - -
03/05:00pm 31.2 SE 7 13 1012.7 - 0.0 - Partly cloudy 10 - - - -
03/04:30pm 31.2 SE 6 10 1012.6 - 0.0 - Partly cloudy 10 - - - -
03/04:00pm 31.6 ESE 10 12 1012.6 - 0.0 - - 10 - - - -
03/03:30pm 31.7 ESE 10 16 1012.7 - 0.0 - - 10 - - - -
03/03:00pm 31.3 E 11 14 1012.8 - 0.0 - - 10 - - - -
03/02:30pm 31.6 E 11 16 1013.2 - 0.0 - - 10 - - - -
03/02:00pm 31.5 ESE 14 20 1013.7 - 0.0 - - 10 - - - -
03/01:30pm 30.7 ESE 10 16 1014.2 - 0.0 - - 10 - - - -
03/01:00pm 30.7 SE 12 17 1014.6 - 0.0 - - 10 - - - -
03/12:51pm 30.9 ESE 15 25 1014.7 - 0.0 - - 10 - - - -
03/12:30pm 30.5 ESE 13 20 1015.2 - 0.0 - - 10 - - - -
03/12:00pm 30.1 ESE 13 19 1015.5 - 0.0 - - 10 - - - -
03/11:30am 29.4 ESE 11 15 1016.0 - 0.0 - - 10 - - - -
03/11:00am 27.9 E 10 15 1016.6 - 0.0 - - 10 - - - -
03/10:30am 26.7 E 9 14 1017.0 - 0.0 - - 10 - - - -
03/10:00am 25.8 E 6 14 1017.4 - 0.0 - - 10 - - - -
03/09:30am 24.1 E 8 11 1017.4 - 0.0 - - 10 - - - -
03/09:00am 23.5 ESE 10 14 1017.2 - 0.0 - - 10 - - - -
03/08:30am 21.4 ESE 6 8 1016.9 - 0.0 - - 10 - - - -
03/08:00am 19.6 ESE 3 4 1016.6 - 0.0 - - 9 - - - -
03/07:51am 18.7 SE 2 5 1016.6 - 0.0 - - 9 - - - -
03/07:33am 16.8 S 2 3 1016.3 - 0.0 - - 6 - - - -
03/07:30am 16.7 S 2 3 1016.2 - 0.0 - - 8 - - - -
03/07:00am 15.9 CALM 0 1 1016.1 - 0.0 - - 7 - - - -
03/06:30am 16.1 CALM 0 0 1015.9 - 0.0 - - 9 - - - -
03/06:02am 16.2 NNE 1 2 1015.8 - 0.0 - - 7 - - - -
03/06:00am 16.1 NNE 1 2 1015.7 - 0.0 - - 7 - - - -
03/05:30am 16.4 NNW 1 2 1015.4 - 0.0 - - 4 - - - -
03/05:00am 16.9 NW 1 2 1015.3 - 0.0 - - 4 - - - -
03/04:30am 17.1 CALM 0 1 1015.2 - 0.0 - - 5 - - - -
03/04:00am 18.4 ESE 2 2 1015.4 - 0.0 - - 5 - - - -
03/03:30am 18.7 ESE 3 3 1015.4 - 0.0 - - 6 - - - -
03/03:00am 18.4 SE 3 4 1015.4 - 0.0 - - 7 - - - -
03/02:40am 18.7 ESE 3 4 1015.6 - 0.0 - - 6 - - - -
03/02:39am 18.7 ESE 3 4 1015.6 - 0.0 - - 7 - - - -
03/02:30am 18.8 SE 3 3 1015.7 - 0.0 - - 7 - - - -
03/02:20am 19.0 SE 2 3 1015.8 - 0.0 - - 6 - - - -
03/02:14am 19.1 SE 3 4 1015.8 - 0.0 - - 8 - - - -
03/02:00am 19.1 SE 3 4 1015.9 - 0.0 - - 6 - - - -
03/01:53am 19.1 ESE 3 4 1016.0 - 0.0 - - 6 - - - -
03/01:30am 19.0 ESE 3 4 1016.2 - 0.0 - - 7 - - - -
03/01:22am 19.3 ESE 3 4 1016.3 - 0.0 - - 10 - - - -
03/01:09am 19.3 SE 3 4 1016.4 - 0.0 - - 6 - - - -
03/01:00am 19.2 ESE 4 4 1016.5 - 0.0 - - 10 - - - -
03/12:30am 19.6 ESE 3 4 1016.6 - 0.0 - - 7 - - - -
03/12:00am 20.6 E 3 4 1016.6 - 0.0 - - 10 - - - -
 
Date/Time
EST
Temp

°C
Wind Pressure Rain
since 9am
mm
Weather Cloud Vis
km
Sea
Height
m
Swell
Dir
 
Speed
knots
Gust
knots
hPa Trend Height
m
Period
s
Dir
02/11:30pm 20.3 E 3 5 1016.8 - 0.0 - - 10 - - - -
02/11:00pm 21.4 E 3 4 1016.9 - 0.0 - - 10 - - - -
02/10:30pm 22.3 E 4 5 1017.0 - 0.0 - - 10 - - - -
02/10:00pm 23.0 ESE 4 5 1016.9 - 0.0 - - 9 - - - -
02/09:30pm 23.8 ESE 7 10 1016.5 - 0.0 - - 10 - - - -
02/09:00pm 24.5 ESE 10 15 1016.0 - 0.0 - - 10 - - - -
02/08:30pm 25.0 E 8 12 1015.7 - 0.0 - - 10 - - - -
02/08:00pm 25.7 ESE 9 11 1015.1 - 0.0 - - 10 - - - -
02/07:30pm 26.0 ESE 6 9 1014.6 - 0.0 - - 10 - - - -
02/07:00pm 26.3 ESE 5 7 1014.0 - 0.0 - Partly cloudy 10 - - - -
02/06:30pm 27.6 ESE 6 9 1013.5 - 0.0 - - 10 - - - -
02/06:00pm 29.1 ESE 8 12 1013.2 - 0.0 - - 10 - - - -
02/05:30pm 29.8 ESE 8 12 1013.0 - 0.0 - - 10 - - - -
02/05:00pm 30.2 E 9 14 1012.9 - 0.0 - - 10 - - - -

Other Formats:

Comma delimited format used in spreadsheet applications
http://www.bom.gov.au/fwo/IDQ60701/IDQ60701.94170.axf

JavaScript Object Notation format (JSON) in row-major order
http://www.bom.gov.au/fwo/IDQ60701/IDQ60701.94170.json